createdAt,value
2018-07-15T00:01:34.370Z,25.70
2018-07-15T00:09:01.383Z,25.70
2018-07-15T00:11:30.682Z,25.70
2018-07-15T00:13:59.991Z,25.70
2018-07-15T00:16:29.276Z,25.60
2018-07-15T00:18:58.622Z,25.60
2018-07-15T00:21:27.937Z,25.60
2018-07-15T00:23:57.221Z,25.50
2018-07-15T00:26:26.561Z,25.50
2018-07-15T00:33:53.470Z,25.60
2018-07-15T00:36:22.868Z,25.50
2018-07-15T00:38:52.215Z,25.60
2018-07-15T00:41:22.144Z,25.60
2018-07-15T00:43:51.629Z,25.60
2018-07-15T00:46:20.993Z,25.60
2018-07-15T00:48:50.348Z,25.60
2018-07-15T00:51:19.676Z,25.60
2018-07-15T00:56:17.804Z,25.60
2018-07-15T00:58:47.115Z,25.70
2018-07-15T01:01:16.440Z,25.60
2018-07-15T01:03:45.797Z,25.60
2018-07-15T01:06:15.135Z,25.60
2018-07-15T01:08:44.474Z,25.60
2018-07-15T01:11:13.763Z,25.60
2018-07-15T01:16:11.853Z,25.50
2018-07-15T01:21:09.908Z,25.50
2018-07-15T01:23:39.298Z,25.60
2018-07-15T01:26:08.635Z,25.60
2018-07-15T01:33:35.635Z,25.60
2018-07-15T01:36:04.929Z,25.60
2018-07-15T01:38:34.261Z,25.60
2018-07-15T01:41:03.658Z,25.60
2018-07-15T01:43:32.984Z,25.50
2018-07-15T01:46:02.248Z,25.50
2018-07-15T01:48:31.559Z,25.60
2018-07-15T01:51:00.864Z,25.50
2018-07-15T01:53:30.188Z,25.50
2018-07-15T01:55:59.552Z,25.50
2018-07-15T01:58:28.851Z,25.50
2018-07-15T02:00:58.258Z,25.50
2018-07-15T02:03:27.602Z,25.50
2018-07-15T02:05:56.853Z,25.50
2018-07-15T02:08:26.232Z,25.50
2018-07-15T02:13:24.497Z,25.40
2018-07-15T02:15:53.789Z,25.40
2018-07-15T02:18:23.102Z,25.50
2018-07-15T02:20:52.388Z,25.40
2018-07-15T02:23:21.707Z,25.40
2018-07-15T02:25:51.007Z,25.40
2018-07-15T02:30:49.120Z,25.40
2018-07-15T02:33:18.549Z,25.40
2018-07-15T02:35:47.820Z,25.40
2018-07-15T02:38:17.172Z,25.40
2018-07-15T02:40:46.498Z,25.30
2018-07-15T02:43:15.769Z,25.40
2018-07-15T02:45:45.088Z,25.40
2018-07-15T02:48:14.381Z,25.40
2018-07-15T02:50:43.691Z,25.40
2018-07-15T02:53:13.032Z,25.40
2018-07-15T02:55:42.332Z,25.30
2018-07-15T02:58:11.627Z,25.30
2018-07-15T03:00:40.954Z,25.40
2018-07-15T03:03:10.232Z,25.30
2018-07-15T03:05:39.495Z,25.30
2018-07-15T03:08:08.926Z,25.30
2018-07-15T03:10:38.224Z,25.30
2018-07-15T03:13:07.555Z,25.30
2018-07-15T03:15:36.900Z,25.30
2018-07-15T03:18:06.216Z,25.30
2018-07-15T03:23:04.334Z,25.30
2018-07-15T03:25:33.687Z,25.30
2018-07-15T03:28:02.994Z,25.30
2018-07-15T03:30:32.312Z,25.30
2018-07-15T03:33:01.641Z,25.30
2018-07-15T03:35:30.962Z,25.30
2018-07-15T03:38:00.328Z,25.20
2018-07-15T03:40:29.690Z,25.30
2018-07-15T03:42:59.012Z,25.20
2018-07-15T03:50:25.859Z,25.20
2018-07-15T03:52:55.172Z,25.20
2018-07-15T03:55:24.482Z,25.20
2018-07-15T04:00:22.553Z,25.20
2018-07-15T04:02:51.852Z,25.20
2018-07-15T04:05:21.223Z,25.20
2018-07-15T04:07:50.518Z,25.20
2018-07-15T04:10:19.830Z,25.10
2018-07-15T04:12:55.499Z,25.10
2018-07-15T04:15:24.779Z,25.10
2018-07-15T04:18:02.281Z,25.10
2018-07-15T04:20:32.036Z,25.10
2018-07-15T04:23:01.915Z,25.10
2018-07-15T04:25:31.613Z,25.10
2018-07-15T04:28:00.873Z,25.10
2018-07-15T04:30:30.170Z,25.10
2018-07-15T04:32:59.516Z,25.10
2018-07-15T04:35:28.806Z,25.10
2018-07-15T04:37:58.195Z,25.20
2018-07-15T04:40:27.496Z,25.10
2018-07-15T04:42:56.810Z,25.10
2018-07-15T04:45:26.110Z,25.10
2018-07-15T04:47:55.461Z,25.00
2018-07-15T04:50:24.725Z,25.00
2018-07-15T04:52:54.040Z,25.00
2018-07-15T04:55:23.339Z,25.00
2018-07-15T04:57:52.593Z,25.00
2018-07-15T05:00:21.840Z,25.00
2018-07-15T05:02:51.347Z,24.90
2018-07-15T05:05:20.730Z,24.90
2018-07-15T05:07:50.044Z,24.90
2018-07-15T05:12:48.258Z,24.80
2018-07-15T05:15:17.527Z,24.80
2018-07-15T05:17:46.871Z,24.90
2018-07-15T05:20:16.867Z,24.90
2018-07-15T05:25:14.990Z,24.90
2018-07-15T05:27:44.261Z,24.90
2018-07-15T05:32:42.309Z,24.90
2018-07-15T05:35:11.606Z,24.90
2018-07-15T05:37:40.908Z,24.90
2018-07-15T05:40:10.276Z,24.90
2018-07-15T05:42:39.618Z,24.90
2018-07-15T05:45:09.015Z,24.90
2018-07-15T05:47:38.342Z,24.90
2018-07-15T05:50:07.666Z,25.00
2018-07-15T05:52:37.064Z,24.90
2018-07-15T05:55:06.667Z,25.00
2018-07-15T05:57:36.111Z,25.00
2018-07-15T06:00:05.645Z,25.00
2018-07-15T06:02:34.996Z,25.00
2018-07-15T06:05:04.345Z,25.00
2018-07-15T06:07:33.691Z,25.10
2018-07-15T06:10:03.036Z,25.00
2018-07-15T06:12:32.437Z,25.00
2018-07-15T06:15:01.724Z,25.00
2018-07-15T06:17:31.036Z,25.10
2018-07-15T06:20:00.451Z,25.00
2018-07-15T06:22:29.732Z,25.10
2018-07-15T06:24:59.151Z,25.10
2018-07-15T06:27:28.520Z,25.10
2018-07-15T06:29:57.855Z,25.10
2018-07-15T06:32:27.207Z,25.10
2018-07-15T06:34:56.485Z,25.10
2018-07-15T06:39:54.508Z,25.10
2018-07-15T06:42:23.838Z,25.10
2018-07-15T06:44:53.185Z,25.10
2018-07-15T06:47:22.499Z,25.10
2018-07-15T06:49:51.811Z,25.10
2018-07-15T06:52:21.126Z,25.20
2018-07-15T06:54:50.443Z,25.20
2018-07-15T06:57:19.772Z,25.20
2018-07-15T07:02:17.927Z,25.20
2018-07-15T07:04:47.327Z,25.20
2018-07-15T07:07:16.798Z,25.20
2018-07-15T07:09:46.188Z,25.20
2018-07-15T07:12:15.519Z,25.30
2018-07-15T07:14:44.787Z,25.30
2018-07-15T07:17:14.167Z,25.30
2018-07-15T07:22:12.184Z,25.40
2018-07-15T07:24:41.559Z,25.50
2018-07-15T07:32:08.438Z,25.50
2018-07-15T07:34:38.182Z,25.50
2018-07-15T07:37:07.663Z,25.40
2018-07-15T07:39:37.028Z,25.50
2018-07-15T07:42:06.535Z,25.50
2018-07-15T07:44:35.898Z,25.50
2018-07-15T07:47:05.271Z,25.50
2018-07-15T07:52:03.369Z,25.50
2018-07-15T07:54:32.695Z,25.60
2018-07-15T07:57:02.003Z,25.60
2018-07-15T07:59:31.306Z,25.60
2018-07-15T08:02:00.638Z,25.70
2018-07-15T08:04:30.030Z,25.70
2018-07-15T08:06:59.351Z,25.70
2018-07-15T08:11:57.438Z,25.70
2018-07-15T08:16:55.794Z,25.80
2018-07-15T08:19:25.169Z,25.80
2018-07-15T08:21:55.182Z,25.90
2018-07-15T08:24:24.574Z,25.90
2018-07-15T08:26:53.875Z,25.90
2018-07-15T08:29:23.202Z,25.90
2018-07-15T08:31:52.487Z,26.00
2018-07-15T08:34:21.831Z,26.00
2018-07-15T08:36:51.285Z,26.00
2018-07-15T08:39:20.692Z,26.10
2018-07-15T08:41:50.252Z,26.10
2018-07-15T08:44:19.631Z,26.10
2018-07-15T08:46:48.967Z,26.20
2018-07-15T08:49:18.304Z,26.20
2018-07-15T08:51:47.660Z,26.30
2018-07-15T08:54:17.090Z,26.30
2018-07-15T08:56:46.514Z,26.30
2018-07-15T08:59:15.818Z,26.20
2018-07-15T09:01:45.251Z,26.30
2018-07-15T09:04:15.075Z,26.30
2018-07-15T09:11:44.435Z,26.30
2018-07-15T09:14:16.449Z,26.30
2018-07-15T09:16:45.806Z,26.30
2018-07-15T09:19:15.187Z,26.30
2018-07-15T09:21:44.667Z,26.40
2018-07-15T09:24:14.104Z,26.40
2018-07-15T09:26:43.561Z,26.50
2018-07-15T09:29:12.983Z,26.50
2018-07-15T09:31:43.329Z,26.40
2018-07-15T09:36:41.631Z,26.60
2018-07-15T09:39:10.926Z,26.70
2018-07-15T09:44:09.024Z,26.90
2018-07-15T09:46:38.344Z,26.90
2018-07-15T09:49:07.696Z,26.90
2018-07-15T09:51:37.141Z,26.90
2018-07-15T09:54:06.632Z,26.80
2018-07-15T09:59:04.885Z,26.90
2018-07-15T10:01:34.197Z,27.00
2018-07-15T10:04:03.604Z,27.00
2018-07-15T10:06:32.949Z,27.10
2018-07-15T10:09:02.351Z,27.20
2018-07-15T10:11:31.728Z,27.20
2018-07-15T10:14:01.140Z,27.10
2018-07-15T10:16:30.476Z,27.20
2018-07-15T10:18:59.972Z,27.30
2018-07-15T10:21:29.247Z,27.30
2018-07-15T10:23:58.579Z,27.30
2018-07-15T10:26:27.922Z,27.30
2018-07-15T10:31:26.148Z,27.30
2018-07-15T10:33:55.531Z,27.40
2018-07-15T10:38:53.663Z,27.60
2018-07-15T10:41:23.080Z,27.50
2018-07-15T10:43:52.431Z,27.60
2018-07-15T10:46:21.817Z,27.80
2018-07-15T10:51:19.958Z,27.80
2018-07-15T10:53:49.352Z,27.90
2018-07-15T10:56:18.721Z,27.90
2018-07-15T10:58:48.151Z,27.80
2018-07-15T11:01:17.541Z,27.80
2018-07-15T11:03:46.851Z,27.80
2018-07-15T11:06:16.268Z,27.90
2018-07-15T11:08:45.588Z,28.00
2018-07-15T11:11:14.847Z,28.00
2018-07-15T11:13:44.348Z,28.00
2018-07-15T11:16:13.706Z,28.00
2018-07-15T11:18:42.999Z,27.90
2018-07-15T11:21:12.327Z,27.90
2018-07-15T11:26:10.396Z,27.90
2018-07-15T11:28:39.829Z,27.80
2018-07-15T11:31:10.453Z,27.60
2018-07-15T11:36:08.549Z,27.30
2018-07-15T11:38:37.856Z,27.20
2018-07-15T11:41:07.550Z,27.00
2018-07-15T11:48:34.545Z,26.70
2018-07-15T11:51:03.850Z,26.90
2018-07-15T11:53:33.198Z,26.90
2018-07-15T11:56:02.564Z,27.00
2018-07-15T11:58:31.851Z,27.00
2018-07-15T12:01:01.153Z,27.10
2018-07-15T12:03:30.489Z,27.00
2018-07-15T12:05:59.822Z,26.90
2018-07-15T12:08:29.131Z,26.90
2018-07-15T12:10:58.517Z,26.70
2018-07-15T12:13:27.843Z,26.50
2018-07-15T12:15:57.332Z,26.50
2018-07-15T12:20:55.620Z,26.40
2018-07-15T12:23:25.040Z,26.40
2018-07-15T12:28:23.231Z,26.70
2018-07-15T12:30:52.748Z,26.70
2018-07-15T12:33:22.084Z,26.70
2018-07-15T12:35:55.143Z,26.70
2018-07-15T12:38:24.594Z,26.70
2018-07-15T12:40:53.950Z,26.80
2018-07-15T12:43:23.404Z,27.00
2018-07-15T12:48:21.739Z,27.30
2018-07-15T12:50:51.124Z,27.40
2018-07-15T12:53:20.640Z,27.60
2018-07-15T12:55:50.264Z,27.70
2018-07-15T12:58:20.071Z,27.70
2018-07-15T13:00:49.502Z,27.80
2018-07-15T13:03:27.224Z,28.00
2018-07-15T13:05:57.077Z,28.00
2018-07-15T13:08:26.491Z,28.10
2018-07-15T13:10:57.384Z,28.10
2018-07-15T13:13:26.762Z,28.00
2018-07-15T13:15:56.067Z,28.00
2018-07-15T13:18:25.464Z,28.00
2018-07-15T13:20:54.819Z,28.10
2018-07-15T13:23:24.172Z,28.20
2018-07-15T13:25:53.474Z,28.30
2018-07-15T13:28:22.942Z,28.40
2018-07-15T13:30:52.234Z,28.50
2018-07-15T13:33:21.552Z,28.60
2018-07-15T13:35:51.077Z,28.70
2018-07-15T13:38:21.073Z,28.70
2018-07-15T13:40:50.921Z,28.80
2018-07-15T13:43:21.243Z,28.80
2018-07-15T13:45:51.362Z,28.80
2018-07-15T13:50:50.508Z,28.80
2018-07-15T13:53:19.986Z,28.70
2018-07-15T13:55:50.261Z,28.60
2018-07-15T13:58:20.151Z,28.60
2018-07-15T14:00:49.770Z,28.60
2018-07-15T14:03:19.106Z,28.70
2018-07-15T14:05:48.472Z,28.70
2018-07-15T14:08:17.832Z,28.80
2018-07-15T14:10:47.234Z,28.80
2018-07-15T14:13:16.660Z,28.90
2018-07-15T14:15:46.115Z,28.90
2018-07-15T14:18:15.409Z,28.90
2018-07-15T14:20:44.819Z,28.80
2018-07-15T14:23:14.114Z,28.80
2018-07-15T14:25:43.449Z,28.80
2018-07-15T14:28:12.874Z,28.90
2018-07-15T14:33:11.168Z,29.00
2018-07-15T14:38:09.680Z,29.00
2018-07-15T14:40:39.054Z,29.00
2018-07-15T14:43:08.422Z,29.10
2018-07-15T14:45:44.492Z,29.00
2018-07-15T14:48:14.012Z,29.00
2018-07-15T14:50:44.211Z,28.90
2018-07-15T14:53:13.631Z,29.00
2018-07-15T14:55:43.095Z,29.00
2018-07-15T14:58:12.552Z,29.00
2018-07-15T15:03:10.745Z,28.80
2018-07-15T15:08:08.906Z,28.40
2018-07-15T15:10:38.301Z,28.30
2018-07-15T15:13:07.600Z,28.30
2018-07-15T15:18:05.871Z,28.30
2018-07-15T15:20:35.205Z,28.40
2018-07-15T15:23:04.661Z,28.40
2018-07-15T15:25:34.199Z,28.40
2018-07-15T15:28:03.549Z,28.40
2018-07-15T15:33:06.676Z,28.40
2018-07-15T15:35:36.141Z,28.50
2018-07-15T15:38:05.531Z,28.50
2018-07-15T15:40:35.655Z,28.40
2018-07-15T15:43:05.147Z,28.40
2018-07-15T15:45:34.506Z,28.30
2018-07-15T15:48:04.181Z,28.30
2018-07-15T15:50:33.570Z,28.40
2018-07-15T15:53:03.170Z,28.40
2018-07-15T15:55:33.201Z,28.40
2018-07-15T15:58:02.713Z,28.40
2018-07-15T16:00:32.152Z,28.40
2018-07-15T16:03:01.559Z,28.30
2018-07-15T16:05:30.949Z,28.30
2018-07-15T16:08:00.357Z,28.20
2018-07-15T16:10:29.793Z,28.20
2018-07-15T16:12:59.272Z,28.20
2018-07-15T16:15:28.577Z,28.10
2018-07-15T16:17:58.103Z,28.10
2018-07-15T16:20:27.416Z,28.10
2018-07-15T16:22:56.816Z,28.10
2018-07-15T16:25:26.452Z,28.20
2018-07-15T16:27:55.891Z,28.20
2018-07-15T16:30:25.434Z,28.20
2018-07-15T16:32:54.894Z,28.10
2018-07-15T16:35:24.510Z,28.10
2018-07-15T16:37:54.549Z,28.10
2018-07-15T16:40:23.958Z,28.10
2018-07-15T16:42:53.345Z,28.10
2018-07-15T16:45:22.816Z,28.10
2018-07-15T16:47:52.185Z,28.20
2018-07-15T16:50:21.503Z,28.20
2018-07-15T16:57:48.608Z,28.20
2018-07-15T17:00:17.957Z,28.20
2018-07-15T17:02:47.307Z,28.10
2018-07-15T17:05:16.804Z,28.10
2018-07-15T17:07:46.150Z,28.10
2018-07-15T17:10:15.477Z,28.10
2018-07-15T17:12:44.798Z,28.10
2018-07-15T17:15:14.153Z,28.10
2018-07-15T17:17:43.556Z,28.00
2018-07-15T17:20:12.924Z,28.00
2018-07-15T17:22:42.300Z,28.00
2018-07-15T17:27:40.513Z,28.00
2018-07-15T17:30:09.926Z,28.00
2018-07-15T17:32:39.218Z,28.00
2018-07-15T17:35:08.660Z,28.00
2018-07-15T17:37:38.334Z,27.90
2018-07-15T17:40:07.800Z,28.00
2018-07-15T17:45:06.128Z,28.00
2018-07-15T17:47:36.549Z,28.10
2018-07-15T17:50:05.933Z,28.10
2018-07-15T17:55:04.978Z,28.20
2018-07-15T17:57:34.371Z,28.20
2018-07-15T18:00:03.913Z,28.30
2018-07-15T18:02:33.215Z,28.40
2018-07-15T18:05:02.573Z,28.40
2018-07-15T18:07:31.902Z,28.50
2018-07-15T18:10:01.285Z,28.50
2018-07-15T18:12:30.640Z,28.60
2018-07-15T18:15:00.015Z,28.60
2018-07-15T18:17:29.297Z,28.70
2018-07-15T18:19:58.666Z,29.00
2018-07-15T18:24:56.786Z,29.10
2018-07-15T18:27:26.217Z,29.10
2018-07-15T18:29:55.451Z,29.10
2018-07-15T18:34:53.426Z,29.20
2018-07-15T18:37:22.688Z,29.20
2018-07-15T18:39:51.999Z,29.10
2018-07-15T18:42:21.391Z,29.00
2018-07-15T18:44:50.749Z,28.90
2018-07-15T18:47:20.100Z,28.90
2018-07-15T18:49:49.401Z,28.90
2018-07-15T18:52:18.699Z,28.90
2018-07-15T18:54:47.993Z,28.80
2018-07-15T18:57:17.341Z,28.80
2018-07-15T18:59:46.691Z,28.80
2018-07-15T19:02:15.997Z,28.80
2018-07-15T19:04:45.308Z,28.70
2018-07-15T19:07:14.581Z,28.70
2018-07-15T19:09:44.019Z,28.70
2018-07-15T19:12:13.410Z,28.70
2018-07-15T19:14:42.774Z,28.70
2018-07-15T19:17:12.287Z,28.70
2018-07-15T19:19:41.600Z,28.60
2018-07-15T19:22:10.939Z,28.50
2018-07-15T19:24:40.299Z,28.50
2018-07-15T19:27:09.584Z,28.50
2018-07-15T19:29:39.678Z,28.50
2018-07-15T19:34:38.401Z,28.40
2018-07-15T19:37:07.704Z,28.40
2018-07-15T19:39:37.042Z,28.40
2018-07-15T19:42:06.352Z,28.40
2018-07-15T19:44:35.734Z,28.30
2018-07-15T19:47:05.299Z,28.20
2018-07-15T19:49:34.709Z,28.10
2018-07-15T19:52:04.076Z,28.00
2018-07-15T19:54:33.458Z,28.00
2018-07-15T19:57:02.760Z,27.90
2018-07-15T19:59:32.115Z,27.80
2018-07-15T20:02:01.379Z,27.60
2018-07-15T20:04:30.702Z,27.50
2018-07-15T20:07:00.049Z,27.50
2018-07-15T20:09:29.339Z,27.40
2018-07-15T20:11:58.722Z,27.40
2018-07-15T20:14:28.020Z,27.40
2018-07-15T20:16:57.276Z,27.30
2018-07-15T20:19:26.572Z,27.30
2018-07-15T20:21:55.828Z,27.30
2018-07-15T20:24:25.095Z,27.30
2018-07-15T20:31:52.233Z,27.30
2018-07-15T20:34:21.570Z,27.30
2018-07-15T20:36:50.892Z,27.30
2018-07-15T20:39:20.212Z,27.30
2018-07-15T20:41:49.588Z,27.30
2018-07-15T20:44:19.020Z,27.20
2018-07-15T20:46:48.469Z,27.20
2018-07-15T20:49:17.797Z,27.20
2018-07-15T20:51:47.228Z,27.20
2018-07-15T20:54:16.544Z,27.30
2018-07-15T20:56:45.851Z,27.30
2018-07-15T20:59:15.095Z,27.30
2018-07-15T21:01:44.554Z,27.20
2018-07-15T21:04:13.900Z,27.20
2018-07-15T21:06:43.261Z,27.10
2018-07-15T21:09:12.603Z,27.10
2018-07-15T21:14:11.707Z,27.10
2018-07-15T21:16:41.047Z,27.10
2018-07-15T21:19:10.360Z,27.00
2018-07-15T21:21:39.720Z,27.10
2018-07-15T21:24:09.086Z,27.00
2018-07-15T21:26:38.345Z,27.00
2018-07-15T21:29:07.645Z,26.90
2018-07-15T21:31:37.084Z,26.90
2018-07-15T21:34:06.624Z,27.00
2018-07-15T21:36:36.067Z,27.00
2018-07-15T21:39:06.816Z,27.00
2018-07-15T21:41:36.127Z,26.90
2018-07-15T21:44:05.581Z,27.00
2018-07-15T21:49:03.712Z,26.90
2018-07-15T21:51:33.077Z,26.80
2018-07-15T21:54:02.540Z,26.70
2018-07-15T21:56:31.809Z,26.70
2018-07-15T21:59:01.087Z,26.70
2018-07-15T22:01:41.008Z,26.70
2018-07-15T22:06:50.829Z,26.60
2018-07-15T22:09:31.114Z,26.60
2018-07-15T22:12:00.925Z,26.60
2018-07-15T22:16:59.144Z,26.60
2018-07-15T22:19:28.747Z,26.60
2018-07-15T22:21:58.100Z,26.60
2018-07-15T22:24:27.509Z,26.50
2018-07-15T22:26:56.862Z,26.50
2018-07-15T22:29:26.176Z,26.50
2018-07-15T22:31:55.586Z,26.50
2018-07-15T22:34:24.926Z,26.50
2018-07-15T22:36:54.272Z,26.50
2018-07-15T22:39:23.583Z,26.50
2018-07-15T22:41:52.872Z,26.50
2018-07-15T22:44:28.404Z,26.50
2018-07-15T22:46:57.775Z,26.50
2018-07-15T22:49:27.107Z,26.40
2018-07-15T22:51:56.795Z,26.40
2018-07-15T22:56:55.003Z,26.50
2018-07-15T22:59:24.396Z,26.50
2018-07-15T23:01:53.800Z,26.40
2018-07-15T23:06:57.254Z,26.50
2018-07-15T23:09:26.620Z,26.40
2018-07-15T23:11:55.994Z,26.40
2018-07-15T23:14:25.214Z,26.40
2018-07-15T23:21:52.187Z,26.50
2018-07-15T23:29:19.028Z,26.30
2018-07-15T23:31:48.303Z,26.30
2018-07-15T23:34:17.601Z,26.20
2018-07-15T23:36:46.956Z,26.20
2018-07-15T23:39:16.227Z,26.20
2018-07-15T23:41:45.640Z,26.20
2018-07-15T23:44:14.927Z,26.20
2018-07-15T23:46:44.212Z,26.10
2018-07-15T23:49:13.494Z,26.10
2018-07-15T23:51:42.845Z,26.10
2018-07-15T23:54:12.123Z,26.10
2018-07-15T23:56:41.449Z,26.10
2018-07-15T23:59:10.771Z,26.10
